FW2486 Weather Reports


Display with metric or nautical units.
time (UTC)temp
F
wind
direction
speed
MPH
gust
MPH
rain 1hr
in
rain 24hr
in
rain mn
in
humidity
%
barometer
mb
20240620000106 77 318 5.0 12.0 0.00 0.00 0.00 32 1016.3
20240619234531 77 334 4.0 10.0 0.00 0.00 0.00 31 1016.3
20240619233032 78 323 5.0 11.0 0.00 0.00 0.00 31 1016.3
20240619231530 78 333 6.0 12.0 0.00 0.00 0.00 30 1016.4
20240619230032 78 338 5.0 11.0 0.00 0.00 0.00 31 1016.5
20240619224532 78 334 5.0 12.0 0.00 0.00 0.00 29 1016.7
20240619223034 79 340 5.0 12.0 0.00 0.00 0.00 29 1016.8
20240619220032 79 328 5.0 11.0 0.00 0.00 0.00 32 1017.0
20240619214608 78 347 5.0 13.0 0.00 0.00 0.00 31 1017.2
20240619213105 77 342 5.0 18.0 0.00 0.00 0.00 31 1017.3
20240619210033 77 354 6.0 11.0 0.00 0.00 0.00 33 1017.6
20240619204608 76 340 7.0 14.0 0.00 0.00 0.00 32 1017.7
20240619203032 77 337 7.0 17.0 0.00 0.00 0.00 34 1017.8
20240619201534 76 340 5.0 14.0 0.00 0.00 0.00 35 1017.9
20240619200033 76 338 5.0 11.0 0.00 0.00 0.00 34 1018.1
20240619194534 75 15 4.0 10.0 0.00 0.00 0.00 34 1018.3
20240619193035 73 19 6.0 12.0 0.00 0.00 0.00 35 1018.4
20240619191530 72 16 7.0 15.0 0.00 0.00 0.00 38 1018.4
20240619184535 71 341 6.0 13.0 0.00 0.00 0.00 50 1018.6
20240619183030 70 341 6.0 15.0 0.00 0.00 0.00 52 1018.7
20240619181533 70 339 6.0 12.0 0.00 0.00 0.00 54 1018.8
20240619180034 69 336 5.0 11.0 0.00 0.00 0.00 56 1018.9
20240619174534 68 348 6.0 12.0 0.00 0.00 0.00 55 1018.9
20240619173107 67 340 6.0 11.0 0.00 0.00 0.00 56 1018.9
20240619171533 66 345 6.0 13.0 0.00 0.00 0.00 55 1019.1
20240619170032 66 342 6.0 12.0 0.00 0.00 0.00 53 1019.2
20240619163031 65 79 0.0 3.0 0.00 0.00 0.00 56 1019.5
20240619161532 64 112 0.0 3.0 0.00 0.00 0.00 59 1019.6
20240619160108 62 103 2.0 4.0 0.00 0.00 0.00 63 1019.6
20240619154534 60 85 1.0 3.0 0.00 0.00 0.00 68 1019.6
20240619153034 59 115 1.0 4.0 0.00 0.00 0.00 72 1019.7
20240619150054 54 96 1.0 3.0 0.00 0.00 0.00 87 1019.6
20240619144531 51 130 1.0 3.0 0.00 0.00 0.00 92 1019.6
20240619143034 48 114 2.0 4.0 0.00 0.00 0.00 95 1019.5
20240619141531 47 112 2.0 3.0 0.00 0.00 0.00 96 1019.3
20240619140033 44 164 2.0 4.0 0.00 0.00 0.00 97 1019.1
20240619134532 41 146 2.0 4.0 0.00 0.00 0.00 97 1018.9
20240619133107 39 125 1.0 3.0 0.00 0.00 0.00 97 1018.8
20240619131604 39 136 2.0 3.0 0.00 0.00 0.00 96 1018.7
20240619124528 39 119 2.0 3.0 0.00 0.00 0.00 96 1018.5
20240619123030 39 150 2.0 4.0 0.00 0.00 0.00 96 1018.4
20240619120032 39 124 2.0 4.0 0.00 0.00 0.00 95 1018.2
20240619114531 40 127 1.0 2.0 0.00 0.00 0.00 95 1018.2
20240619113147 41 157 1.0 3.0 0.00 0.00 0.00 95 1018.0
20240619110029 41 142 2.0 4.0 0.00 0.00 0.00 95 1018.0
20240619104609 41 135 2.0 5.0 0.00 0.00 0.00 95 1018.1
20240619103031 42 153 2.0 4.0 0.00 0.00 0.00 94 1018.0
20240619101530 42 158 2.0 4.0 0.00 0.00 0.00 94 1018.0
20240619100033 42 146 2.0 4.0 0.00 0.00 0.00 93 1018.0
20240619094535 42 140 2.0 3.0 0.00 0.00 0.00 93 1018.0
20240619093035 43 135 2.0 4.0 0.00 0.00 0.00 93 1018.2
20240619091531 44 146 2.0 4.0 0.00 0.00 0.00 93 1018.2
20240619090028 44 156 2.0 3.0 0.00 0.00 0.00 92 1018.1
20240619084530 45 166 2.0 4.0 0.00 0.00 0.00 92 1018.2
20240619081533 45 150 3.0 5.0 0.00 0.00 0.00 91 1018.2
20240619080036 45 157 3.0 4.0 0.00 0.00 0.00 90 1018.2
20240619074535 45 143 2.0 4.0 0.00 0.00 0.00 88 1018.2
20240619073104 46 135 2.0 4.0 0.00 0.00 0.00 87 1018.3
20240619071646 47 163 2.0 4.0 0.00 0.00 0.00 87 1018.4
20240619070032 47 148 3.0 7.0 0.00 0.00 0.00 85 1018.4
20240619063030 51 158 0.0 5.0 0.00 0.00 0.00 80 1018.4
20240619061531 51 152 3.0 5.0 0.00 0.00 0.00 80 1018.4
20240619054531 52 158 2.0 4.0 0.00 0.00 0.00 78 1018.3
20240619053107 51 168 2.0 5.0 0.00 0.00 0.00 78 1018.1
20240619051545 51 205 3.0 6.0 0.00 0.00 0.00 79 1018.0
20240619050031 50 207 3.0 7.0 0.00 0.00 0.00 78 1017.9
20240619044536 51 189 2.0 4.0 0.00 0.00 0.00 76 1017.7
20240619040031 55 221 0.0 4.0 0.00 0.00 0.00 67 1017.2
20240619034535 57 257 0.0 4.0 0.00 0.00 0.00 64 1017.0
20240619033033 59 186 0.0 4.0 0.00 0.00 0.00 60 1016.8
20240619030032 63 276 0.0 4.0 0.00 0.00 0.00 53 1016.5
20240619023105 67 269 2.0 6.0 0.00 0.00 0.00 46 1016.3
20240619021532 68 282 3.0 7.0 0.00 0.00 0.00 46 1016.2
20240619020039 69 319 3.0 10.0 0.00 0.00 0.00 47 1016.1
20240619014532 68 358 3.0 7.0 0.00 0.00 0.00 46 1016.1
20240619011647 69 3 3.0 9.0 0.00 0.00 0.00 45 1016.1
20240619010034 69 345 4.0 9.0 0.00 0.00 0.00 45 1016.1
20240619004531 69 350 5.0 9.0 0.00 0.00 0.00 47 1016.2
20240619003031 70 345 4.0 8.0 0.00 0.00 0.00 47 1016.2
20240619001533 70 349 4.0 9.0 0.00 0.00 0.00 45 1016.3